Time;durP1;ratioP1;P1;durP2;ratioP2;P2;SDS_P1;SDS_P2;PMS_P1;PMS_P2;Temp;Humidity;BMP_temperature;BMP_pressure;BME280_temperature;BME280_humidity;BME280_pressure;Samples;Min_cycle;Max_cycle;Signal;HPM_P1;HPM_P2
2023/04/02 00:00:25;;;;;;;;;;;;;;;19.39;58.37;97833.06;2081915;28;20900;-54
2023/04/02 00:01:35;;;;;;;;;;;;;;;19.38;57.95;97831.41;2084440;28;19933;-52
2023/04/02 00:02:43;;;;;;;;;;;;;;;19.37;58.38;97829.78;2085123;28;19939;-54
2023/04/02 00:04:07;;;;;;;;;;;;;;;19.36;58.57;97833.53;2080922;28;19929;-55
2023/04/02 00:05:36;;;;;;;;;;;;;;;19.36;58.45;97830.84;2080587;28;20023;-54
2023/04/02 00:06:43;;;;;;;;;;;;;;;19.36;58.38;97830.00;2072132;28;19925;-53
2023/04/02 00:07:47;;;;;;;;;;;;;;;19.36;58.43;97830.00;2077360;28;20375;-54
2023/04/02 00:08:48;;;;;;;;;;;;;;;19.34;58.29;97824.84;2080070;28;19941;-52
2023/04/02 00:09:49;;;;;;;;;;;;;;;19.35;58.36;97829.19;2081426;28;20314;-53
2023/04/02 00:10:51;;;;;;;;;;;;;;;19.36;58.21;97830.00;2080370;28;20761;-54
2023/04/02 00:11:54;;;;;;;;;;;;;;;19.34;58.44;97827.53;2081088;28;19979;-52
2023/04/02 00:12:59;;;;;;;;;;;;;;;19.33;58.45;97823.19;2079737;28;19964;-49
2023/04/02 00:14:01;;;;;;;;;;;;;;;19.32;58.14;97826.94;2079633;28;20414;-52
2023/04/02 00:15:02;;;;;;;;;;;;;;;19.33;58.28;97822.38;2084965;28;19928;-50
2023/04/02 00:16:05;;;;;;;;;;;;;;;19.31;58.37;97825.31;2081941;28;19975;-57
2023/04/02 00:17:05;;;;;;;;;;;;;;;19.31;58.57;97828.00;2078669;28;20043;-55
2023/04/02 00:18:07;;;;;;;;;;;;;;;19.32;58.14;97824.25;2080967;28;19928;-57
2023/04/02 00:19:12;;;;;;;;;;;;;;;19.31;58.10;97819.94;2084334;28;19933;-53
2023/04/02 00:20:16;;;;;;;;;;;;;;;19.32;58.31;97824.25;2081786;28;24691;-55
2023/04/02 00:21:20;;;;;;;;;;;;;;;19.32;58.24;97818.88;2082056;28;19960;-54
2023/04/02 00:22:24;;;;;;;;;;;;;;;19.34;58.09;97821.34;2080913;28;19928;-53
2023/04/02 00:23:25;;;;;;;;;;;;;;;19.32;58.09;97826.13;2082225;28;20034;-57
2023/04/02 00:24:27;;;;;;;;;;;;;;;19.31;58.12;97828.00;2083472;28;19933;-54
2023/04/02 00:25:41;;;;;;;;;;;;;;;19.32;58.41;97828.81;2074886;28;20074;-52
2023/04/02 00:26:43;;;;;;;;;;;;;;;19.30;57.99;97820.16;2080253;28;19929;-56
2023/04/02 00:27:45;;;;;;;;;;;;;;;19.29;58.09;97813.16;2083024;28;19924;-54
2023/04/02 00:28:45;;;;;;;;;;;;;;;19.30;58.13;97817.47;2084262;28;19932;-53
2023/04/02 00:29:47;;;;;;;;;;;;;;;19.28;58.06;97820.41;2082600;28;20393;-54
2023/04/02 00:30:49;;;;;;;;;;;;;;;19.28;58.25;97812.34;2082545;28;20337;-53
2023/04/02 00:31:51;;;;;;;;;;;;;;;19.27;58.09;97813.34;2075665;28;20629;-53
2023/04/02 00:32:53;;;;;;;;;;;;;;;19.26;58.08;97817.09;2082829;28;19928;-54
2023/04/02 00:33:55;;;;;;;;;;;;;;;19.25;57.87;97812.78;2079854;28;19936;-54
2023/04/02 00:34:57;;;;;;;;;;;;;;;19.25;58.26;97815.47;2082095;28;19928;-55
2023/04/02 00:35:59;;;;;;;;;;;;;;;19.25;58.06;97810.09;2083860;28;19932;-58
2023/04/02 00:37:00;;;;;;;;;;;;;;;19.25;58.35;97809.25;2083967;28;19928;-53
2023/04/02 00:38:02;;;;;;;;;;;;;;;19.25;58.50;97812.78;2079902;28;19936;-54
2023/04/02 00:39:07;;;;;;;;;;;;;;;19.25;58.19;97806.56;2081329;28;19991;-50
2023/04/02 00:40:14;;;;;;;;;;;;;;;19.24;58.21;97803.06;2085527;28;20015;-53
2023/04/02 00:41:17;;;;;;;;;;;;;;;19.24;58.18;97805.75;2083892;28;19932;-56
2023/04/02 00:42:18;;;;;;;;;;;;;;;19.25;58.11;97803.88;2082742;28;19939;-58
2023/04/02 00:43:21;;;;;;;;;;;;;;;19.24;58.14;97803.06;2081597;28;19958;-56
2023/04/02 00:44:22;;;;;;;;;;;;;;;19.22;58.22;97810.53;2081017;28;20654;-54
2023/04/02 00:45:24;;;;;;;;;;;;;;;19.23;58.24;97806.81;2080928;28;19929;-52
2023/04/02 00:46:29;;;;;;;;;;;;;;;19.22;58.19;97809.72;2083122;28;19929;-50
2023/04/02 00:47:31;;;;;;;;;;;;;;;19.23;58.20;97808.69;2084224;28;19936;-57
2023/04/02 00:48:39;;;;;;;;;;;;;;;19.21;58.08;97808.91;2081387;28;19967;-56
2023/04/02 00:49:40;;;;;;;;;;;;;;;19.21;58.16;97811.59;2082850;27;19973;-56
2023/04/02 00:50:44;;;;;;;;;;;;;;;19.22;58.08;97804.34;2081343;28;19938;-54
2023/04/02 00:51:47;;;;;;;;;;;;;;;19.21;57.90;97814.28;2079885;28;20460;-56
2023/04/02 00:52:51;;;;;;;;;;;;;;;19.20;58.17;97813.47;2080982;27;19928;-53
2023/04/02 00:53:52;;;;;;;;;;;;;;;19.21;58.29;97808.91;2083146;28;20444;-56
2023/04/02 00:54:59;;;;;;;;;;;;;;;19.20;58.28;97812.66;2083545;28;19931;-56
2023/04/02 00:56:01;;;;;;;;;;;;;;;19.20;58.06;97812.66;2081609;28;20268;-54
2023/04/02 00:57:02;;;;;;;;;;;;;;;19.18;58.45;97810.16;2077739;28;20276;-57
2023/04/02 00:58:03;;;;;;;;;;;;;;;19.21;57.98;97814.28;2081725;28;19985;-53
2023/04/02 00:59:13;;;;;;;;;;;;;;;19.19;58.19;97811.84;2080512;28;19928;-57
2023/04/02 01:00:18;;;;;;;;;;;;;;;19.18;57.86;97815.53;2083614;28;19985;-54
2023/04/02 01:01:22;;;;;;;;;;;;;;;19.20;58.32;97809.97;2081528;28;21003;-53
2023/04/02 01:02:25;;;;;;;;;;;;;;;19.20;58.14;97808.09;2079398;28;19985;-56
2023/04/02 01:03:33;;;;;;;;;;;;;;;19.18;58.12;97810.16;2082465;28;19932;-53
2023/04/02 01:04:35;;;;;;;;;;;;;;;19.18;58.19;97812.03;2084702;28;19928;-55
2023/04/02 01:05:36;;;;;;;;;;;;;;;19.17;58.26;97811.22;2080653;28;19937;-53
2023/04/02 01:06:38;;;;;;;;;;;;;;;19.17;58.20;97807.72;2080680;28;20493;-55
2023/04/02 01:07:51;;;;;;;;;;;;;;;19.14;58.45;97813.56;2081179;28;20021;-51
2023/04/02 01:08:57;;;;;;;;;;;;;;;19.15;58.01;97812.50;2081402;28;20088;-55
2023/04/02 01:10:12;;;;;;;;;;;;;;;19.17;58.01;97818.47;2078726;28;20059;-54
2023/04/02 01:11:23;;;;;;;;;;;;;;;19.14;58.20;97816.25;2081515;28;19982;-50
2023/04/02 01:12:33;;;;;;;;;;;;;;;19.12;58.23;97815.66;2085982;28;19928;-57
2023/04/02 01:13:37;;;;;;;;;;;;;;;19.12;58.21;97816.47;2083566;28;20443;-55
2023/04/02 01:14:49;;;;;;;;;;;;;;;19.13;58.32;97818.09;2085776;28;19932;-54
2023/04/02 01:15:53;;;;;;;;;;;;;;;19.10;58.18;97810.47;2082010;28;19932;-56
2023/04/02 01:16:59;;;;;;;;;;;;;;;19.12;58.21;97812.97;2084809;28;19955;-52
2023/04/02 01:18:08;;;;;;;;;;;;;;;19.12;58.08;97815.66;2080858;28;19940;-58
2023/04/02 01:19:25;;;;;;;;;;;;;;;19.11;58.24;97812.13;2080122;28;19929;-53
2023/04/02 01:20:46;;;;;;;;;;;;;;;19.10;58.09;97806.97;2086607;28;19939;-56
2023/04/02 01:21:56;;;;;;;;;;;;;;;19.09;58.36;97805.34;2083110;28;21205;-55
2023/04/02 01:23:01;;;;;;;;;;;;;;;19.08;58.20;97799.13;2082666;28;19933;-55
2023/04/02 01:24:03;;;;;;;;;;;;;;;19.08;58.30;97804.50;2080654;28;19983;-54
2023/04/02 01:25:05;;;;;;;;;;;;;;;19.07;58.12;97800.19;2083564;28;19928;-53
2023/04/02 01:26:11;;;;;;;;;;;;;;;19.09;58.01;97797.28;2082216;28;20624;-55
2023/04/02 01:27:16;;;;;;;;;;;;;;;19.08;58.00;97804.50;2084531;28;19959;-52
2023/04/02 01:28:18;;;;;;;;;;;;;;;19.07;58.19;97805.56;2082864;28;20005;-51
2023/04/02 01:29:22;;;;;;;;;;;;;;;19.05;58.06;97798.78;2086179;28;21148;-57
2023/04/02 01:30:22;;;;;;;;;;;;;;;19.06;58.19;97803.94;2081148;28;20999;-53
2023/04/02 01:31:26;;;;;;;;;;;;;;;19.05;58.07;97804.97;2083596;28;19935;-59
2023/04/02 01:32:28;;;;;;;;;;;;;;;19.06;58.25;97795.06;2081219;28;20667;-52
2023/04/02 01:33:30;;;;;;;;;;;;;;;19.03;58.35;97793.63;2084654;28;19978;-55
2023/04/02 01:34:32;;;;;;;;;;;;;;;19.03;58.18;97796.31;2083841;28;20017;-55
2023/04/02 01:35:38;;;;;;;;;;;;;;;19.02;58.19;97797.34;2081422;28;20031;-54
2023/04/02 01:36:42;;;;;;;;;;;;;;;19.05;58.34;97804.16;2080654;28;19928;-52
2023/04/02 01:37:48;;;;;;;;;;;;;;;19.03;58.16;97801.69;2081813;28;19925;-56
2023/04/02 01:38:53;;;;;;;;;;;;;;;19.03;58.19;97800.84;2083752;28;19954;-53
2023/04/02 01:40:01;;;;;;;;;;;;;;;19.02;58.18;97799.22;2080271;28;20023;-54
2023/04/02 01:41:05;;;;;;;;;;;;;;;19.03;58.39;97795.47;2079247;28;19932;-54
2023/04/02 01:42:11;;;;;;;;;;;;;;;19.01;58.15;97797.59;2085335;28;19929;-53
2023/04/02 01:43:15;;;;;;;;;;;;;;;19.01;58.29;97805.66;2080840;28;19933;-52
2023/04/02 01:44:20;;;;;;;;;;;;;;;19.01;58.12;97811.03;2083024;28;21710;-53
2023/04/02 01:45:22;;;;;;;;;;;;;;;19.00;58.11;97796.78;2085175;28;19981;-54
2023/04/02 01:46:26;;;;;;;;;;;;;;;19.00;58.09;97802.16;2080231;28;19974;-54
2023/04/02 01:47:27;;;;;;;;;;;;;;;19.00;58.30;97794.09;2082898;28;19936;-52
2023/04/02 01:48:30;;;;;;;;;;;;;;;19.00;58.18;97801.31;2083227;28;20431;-53
2023/04/02 01:49:30;;;;;;;;;;;;;;;19.00;58.09;97795.94;2082593;28;20032;-53
2023/04/02 01:50:35;;;;;;;;;;;;;;;18.97;58.19;97791.84;2083799;28;20329;-54
2023/04/02 01:51:39;;;;;;;;;;;;;;;18.99;58.14;97795.13;2085014;28;19933;-54
2023/04/02 01:52:43;;;;;;;;;;;;;;;18.98;58.35;97788.94;2084389;28;19935;-55
2023/04/02 01:53:43;;;;;;;;;;;;;;;18.97;58.37;97787.31;2081165;28;19989;-55
2023/04/02 01:54:46;;;;;;;;;;;;;;;18.94;58.23;97793.13;2086846;28;19986;-53
2023/04/02 01:55:49;;;;;;;;;;;;;;;18.96;58.13;97803.63;2079866;28;20508;-54
2023/04/02 01:56:51;;;;;;;;;;;;;;;18.95;58.32;97799.31;2083148;28;19924;-53
2023/04/02 01:57:53;;;;;;;;;;;;;;;18.97;58.15;97803.44;2079745;28;20019;-54
2023/04/02 01:58:54;;;;;;;;;;;;;;;18.96;58.53;97801.78;2080706;28;20074;-56
2023/04/02 01:59:55;;;;;;;;;;;;;;;18.96;58.11;97804.44;2083393;28;19932;-55
2023/04/02 02:01:01;;;;;;;;;;;;;;;18.94;58.22;97803.88;2081292;27;19933;-54
2023/04/02 02:02:03;;;;;;;;;;;;;;;18.95;58.23;97810.88;2079903;28;19931;-54
2023/04/02 02:03:05;;;;;;;;;;;;;;;18.93;58.17;97801.41;2083085;28;19928;-54
2023/04/02 02:04:06;;;;;;;;;;;;;;;18.94;57.93;97803.88;2080055;28;20032;-52
2023/04/02 02:05:12;;;;;;;;;;;;;;;18.94;58.09;97798.50;2079227;28;19933;-54
2023/04/02 02:06:13;;;;;;;;;;;;;;;18.93;58.29;97799.53;2082800;28;20015;-55
2023/04/02 02:07:16;;;;;;;;;;;;;;;18.92;58.27;97795.22;2082665;28;20011;-53
2023/04/02 02:08:34;;;;;;;;;;;;;;;18.89;58.10;97801.03;2084857;28;19932;-51
2023/04/02 02:09:35;;;;;;;;;;;;;;;18.92;58.36;97789.84;2085277;28;20635;-54
2023/04/02 02:10:38;;;;;;;;;;;;;;;18.88;58.25;97791.31;2085832;28;19936;-55
2023/04/02 02:11:39;;;;;;;;;;;;;;;18.89;58.37;97798.34;2084515;28;20804;-54
2023/04/02 02:12:41;;;;;;;;;;;;;;;18.90;58.39;97794.63;2082382;28;19933;-51
2023/04/02 02:13:45;;;;;;;;;;;;;;;18.93;58.02;97796.03;2082124;28;20140;-54
2023/04/02 02:14:47;;;;;;;;;;;;;;;18.90;58.38;97800.00;2080185;28;19936;-54
2023/04/02 02:15:48;;;;;;;;;;;;;;;18.90;58.42;97794.63;2084256;28;19941;-55
2023/04/02 02:16:55;;;;;;;;;;;;;;;18.87;58.46;97794.25;2083497;28;19929;-52
2023/04/02 02:17:57;;;;;;;;;;;;;;;18.87;58.14;97797.75;2081959;28;20008;-52
2023/04/02 02:19:00;;;;;;;;;;;;;;;18.88;58.37;97794.00;2084810;28;20807;-54
2023/04/02 02:20:05;;;;;;;;;;;;;;;18.90;58.37;97801.84;2084109;28;19929;-53
2023/04/02 02:21:08;;;;;;;;;;;;;;;18.89;57.89;97800.22;2084689;28;19925;-51
2023/04/02 02:22:11;;;;;;;;;;;;;;;18.86;58.22;97798.81;2080551;28;19944;-53
2023/04/02 02:23:12;;;;;;;;;;;;;;;18.88;58.07;97787.81;2084140;28;19951;-53
2023/04/02 02:24:16;;;;;;;;;;;;;;;18.87;58.02;97794.25;2084705;28;19972;-54
2023/04/02 02:25:19;;;;;;;;;;;;;;;18.87;58.06;97799.63;2084981;28;19925;-54
2023/04/02 02:26:21;;;;;;;;;;;;;;;18.85;58.19;97786.41;2080920;28;19937;-53
2023/04/02 02:27:40;;;;;;;;;;;;;;;18.84;58.22;97782.09;2081542;28;19928;-52
2023/04/02 02:28:42;;;;;;;;;;;;;;;18.86;58.07;97789.91;2080574;28;19933;-51
2023/04/02 02:29:45;;;;;;;;;;;;;;;18.85;58.00;97785.59;2078954;28;20387;-53
2023/04/02 02:30:47;;;;;;;;;;;;;;;18.84;58.17;97787.47;2079323;28;19970;-54
2023/04/02 02:31:52;;;;;;;;;;;;;;;18.85;58.11;97789.09;2085154;28;19939;-54
2023/04/02 02:32:57;;;;;;;;;;;;;;;18.84;58.04;97784.78;2078580;28;19940;-53
2023/04/02 02:34:01;;;;;;;;;;;;;;;18.85;58.28;97789.09;2081750;28;22407;-54
2023/04/02 02:35:06;;;;;;;;;;;;;;;18.84;57.91;97782.09;2082448;28;19939;-53
2023/04/02 02:36:13;;;;;;;;;;;;;;;18.83;58.16;97790.38;2081641;28;20056;-55
2023/04/02 02:37:16;;;;;;;;;;;;;;;18.83;58.12;97791.19;2085045;28;19936;-54
2023/04/02 02:38:25;;;;;;;;;;;;;;;18.83;58.10;97793.03;2080916;28;19929;-54
2023/04/02 02:39:29;;;;;;;;;;;;;;;18.84;58.02;97797.41;2080397;28;19925;-53
2023/04/02 02:40:35;;;;;;;;;;;;;;;18.83;58.04;97801.91;2084704;28;20011;-54
2023/04/02 02:41:38;;;;;;;;;;;;;;;18.83;58.38;97795.72;2082716;28;19989;-52
2023/04/02 02:42:42;;;;;;;;;;;;;;;18.84;58.38;97798.22;2084848;28;19932;-55
2023/04/02 02:43:45;;;;;;;;;;;;;;;18.83;58.11;97799.22;2084314;28;19932;-54
2023/04/02 02:44:47;;;;;;;;;;;;;;;18.83;58.26;97801.91;2081054;28;19932;-52
2023/04/02 02:45:49;;;;;;;;;;;;;;;18.82;57.93;97804.84;2084557;28;20436;-55
2023/04/02 02:46:52;;;;;;;;;;;;;;;18.81;57.97;97806.72;2082902;28;19932;-54
2023/04/02 02:47:53;;;;;;;;;;;;;;;18.82;58.17;97807.53;2083924;28;20618;-56
2023/04/02 02:48:58;;;;;;;;;;;;;;;18.80;58.30;97807.75;2078849;28;20006;-55
2023/04/02 02:50:00;;;;;;;;;;;;;;;18.79;58.00;97811.50;2080781;28;19925;-56
2023/04/02 02:51:04;;;;;;;;;;;;;;;18.79;58.25;97806.13;2080973;28;20556;-54
2023/04/02 02:52:11;;;;;;;;;;;;;;;18.79;58.14;97808.81;2082401;28;19928;-51
2023/04/02 02:53:16;;;;;;;;;;;;;;;18.76;58.15;97809.25;2082952;28;19971;-52
2023/04/02 02:54:18;;;;;;;;;;;;;;;18.77;58.14;97808.19;2084093;28;19936;-50
2023/04/02 02:55:21;;;;;;;;;;;;;;;18.76;58.36;97806.56;2083756;28;19978;-52
2023/04/02 02:56:23;;;;;;;;;;;;;;;18.75;58.17;97803.06;2083849;28;19928;-50
2023/04/02 02:57:26;;;;;;;;;;;;;;;18.75;58.24;97815.69;2079637;28;20035;-54
2023/04/02 02:58:30;;;;;;;;;;;;;;;18.76;58.36;97811.94;2083876;28;19936;-54
2023/04/02 02:59:31;;;;;;;;;;;;;;;18.77;58.34;97812.75;2083456;28;19999;-55
2023/04/02 03:00:33;;;;;;;;;;;;;;;18.76;58.29;97814.63;2081526;28;20516;-59
2023/04/02 03:01:33;;;;;;;;;;;;;;;18.75;58.37;97813.81;2082157;28;20662;-56
2023/04/02 03:02:35;;;;;;;;;;;;;;;18.74;58.11;97811.34;2083688;28;19928;-54
2023/04/02 03:03:36;;;;;;;;;;;;;;;18.73;58.18;97820.41;2084520;28;19924;-52
2023/04/02 03:04:39;;;;;;;;;;;;;;;18.74;58.26;97819.41;2087602;28;19932;-53
2023/04/02 03:05:40;;;;;;;;;;;;;;;18.74;58.11;97824.78;2081830;28;19966;-51
2023/04/02 03:06:42;;;;;;;;;;;;;;;18.73;58.37;97818.56;2081580;28;20453;-53
2023/04/02 03:07:42;;;;;;;;;;;;;;;18.72;58.14;97811.53;2079797;28;19939;-54
2023/04/02 03:08:45;;;;;;;;;;;;;;;18.74;58.02;97817.53;2086512;28;19932;-55
2023/04/02 03:09:49;;;;;;;;;;;;;;;18.76;58.00;97817.31;2086714;28;19924;-55
2023/04/02 03:10:54;;;;;;;;;;;;;;;18.75;57.98;97811.13;2080620;28;19932;-54
2023/04/02 03:11:58;;;;;;;;;;;;;;;18.75;58.22;97816.50;2081261;28;19931;-52
2023/04/02 03:13:05;;;;;;;;;;;;;;;18.75;58.18;97815.69;2084817;28;19942;-53
2023/04/02 03:14:14;;;;;;;;;;;;;;;18.74;58.17;97819.41;2083884;28;19925;-53
2023/04/02 03:15:20;;;;;;;;;;;;;;;18.73;58.25;97812.38;2081663;28;19929;-52
2023/04/02 03:16:24;;;;;;;;;;;;;;;18.72;58.25;97813.38;2082839;28;19974;-54
2023/04/02 03:17:29;;;;;;;;;;;;;;;18.73;58.25;97815.06;2084173;28;19924;-51
2023/04/02 03:18:41;;;;;;;;;;;;;;;18.72;57.97;97818.75;2079403;28;20535;-52
2023/04/02 03:19:47;;;;;;;;;;;;;;;18.70;58.24;97818.19;2077071;28;19936;-55
2023/04/02 03:20:48;;;;;;;;;;;;;;;18.70;58.23;97815.50;2079380;28;19932;-54
2023/04/02 03:21:52;;;;;;;;;;;;;;;18.69;58.13;97817.38;2079596;28;19940;-53
2023/04/02 03:22:56;;;;;;;;;;;;;;;18.70;58.19;97818.19;2078446;28;19940;-63
2023/04/02 03:24:01;;;;;;;;;;;;;;;18.70;58.34;97818.19;2081029;28;19958;-53
2023/04/02 03:25:05;;;;;;;;;;;;;;;18.71;58.18;97830.56;2083354;28;20487;-54
2023/04/02 03:26:10;;;;;;;;;;;;;;;18.71;58.19;97819.81;2082798;28;19929;-54
2023/04/02 03:27:12;;;;;;;;;;;;;;;18.70;57.94;97824.38;2080628;28;19990;-56
2023/04/02 03:28:16;;;;;;;;;;;;;;;18.71;57.94;97825.19;2082692;28;19935;-51
2023/04/02 03:29:19;;;;;;;;;;;;;;;18.69;57.97;97832.63;2085716;28;19933;-53
2023/04/02 03:30:29;;;;;;;;;;;;;;;18.70;58.21;97831.63;2081783;28;20012;-56
2023/04/02 03:31:32;;;;;;;;;;;;;;;18.68;58.00;97825.63;2085236;28;19929;-51
2023/04/02 03:32:35;;;;;;;;;;;;;;;18.67;58.15;97827.50;2083266;28;19935;-54
2023/04/02 03:33:39;;;;;;;;;;;;;;;18.68;58.13;97825.63;2082880;28;20164;-52
2023/04/02 03:34:42;;;;;;;;;;;;;;;18.68;57.88;97826.47;2076897;28;19929;-54
2023/04/02 03:35:47;;;;;;;;;;;;;;;18.66;58.26;97825.03;2082304;28;19965;-51
2023/04/02 03:36:52;;;;;;;;;;;;;;;18.66;58.38;97819.66;2085169;28;20913;-55
2023/04/02 03:37:54;;;;;;;;;;;;;;;18.65;58.35;97824.22;2083092;28;19936;-54
2023/04/02 03:39:00;;;;;;;;;;;;;;;18.65;58.32;97820.72;2081224;28;19933;-53
2023/04/02 03:40:06;;;;;;;;;;;;;;;18.65;58.33;97823.41;2082724;28;20279;-52
2023/04/02 03:41:13;;;;;;;;;;;;;;;18.66;58.33;97825.03;2080586;28;19933;-55
2023/04/02 03:42:16;;;;;;;;;;;;;;;18.67;58.16;97821.31;2085020;28;20387;-56
2023/04/02 03:43:20;;;;;;;;;;;;;;;18.65;58.25;97815.34;2077915;28;19928;-50
2023/04/02 03:44:25;;;;;;;;;;;;;;;18.63;58.30;97822.78;2081429;28;20411;-53
2023/04/02 03:45:28;;;;;;;;;;;;;;;18.65;58.35;97816.16;2085598;28;19933;-50
2023/04/02 03:46:31;;;;;;;;;;;;;;;18.63;58.38;97817.44;2079629;28;20497;-56
2023/04/02 03:47:34;;;;;;;;;;;;;;;18.63;58.21;97815.56;2080175;28;19929;-54
2023/04/02 03:48:39;;;;;;;;;;;;;;;18.64;58.25;97813.72;2083958;28;19929;-51
2023/04/02 03:49:43;;;;;;;;;;;;;;;18.63;58.14;97817.44;2083979;28;19929;-54
2023/04/02 03:50:49;;;;;;;;;;;;;;;18.63;58.14;97822.78;2080561;28;19928;-56
2023/04/02 03:51:53;;;;;;;;;;;;;;;18.61;58.22;97819.50;2081284;28;19967;-51
2023/04/02 03:52:56;;;;;;;;;;;;;;;18.62;57.98;97819.28;2084685;28;19978;-55
2023/04/02 03:53:57;;;;;;;;;;;;;;;18.63;58.33;97823.63;2081553;28;19929;-57
2023/04/02 03:54:59;;;;;;;;;;;;;;;18.61;57.99;97820.34;2078671;28;19978;-54
2023/04/02 03:56:00;;;;;;;;;;;;;;;18.62;58.27;97826.53;2081515;28;19990;-53
2023/04/02 03:57:02;;;;;;;;;;;;;;;18.63;58.10;97825.47;2081962;28;19968;-54
2023/04/02 03:58:06;;;;;;;;;;;;;;;18.64;57.80;97819.09;2081901;28;19925;-58
2023/04/02 03:59:13;;;;;;;;;;;;;;;18.63;58.04;97817.44;2083782;28;19933;-53
2023/04/02 04:00:18;;;;;;;;;;;;;;;18.63;57.98;97817.44;2080973;28;19936;-54
2023/04/02 04:01:24;;;;;;;;;;;;;;;18.64;57.95;97819.09;2082889;28;19940;-52
2023/04/02 04:02:32;;;;;;;;;;;;;;;18.61;57.94;97820.34;2083000;28;20491;-52
2023/04/02 04:03:39;;;;;;;;;;;;;;;18.62;58.23;97823.84;2084712;28;19928;-55
2023/04/02 04:04:41;;;;;;;;;;;;;;;18.60;58.39;97823.25;2081533;28;19928;-54
2023/04/02 04:05:46;;;;;;;;;;;;;;;18.60;57.98;97824.06;2079406;28;20797;-54
2023/04/02 04:06:51;;;;;;;;;;;;;;;18.61;58.20;97816.81;2082900;28;19997;-57
2023/04/02 04:07:53;;;;;;;;;;;;;;;18.59;58.04;97817.06;2083707;28;20023;-51
2023/04/02 04:08:58;;;;;;;;;;;;;;;18.58;58.16;97817.28;2082745;28;20413;-53
2023/04/02 04:10:00;;;;;;;;;;;;;;;18.60;58.27;97825.94;2081790;28;19978;-52
2023/04/02 04:11:03;;;;;;;;;;;;;;;18.58;58.07;97820.78;2078794;28;19924;-55
2023/04/02 04:12:08;;;;;;;;;;;;;;;18.57;58.10;97823.69;2077624;28;19933;-56
2023/04/02 04:13:12;;;;;;;;;;;;;;;18.57;58.06;97824.50;2082932;28;19928;-50
2023/04/02 04:14:15;;;;;;;;;;;;;;;18.57;58.17;97823.69;2081433;28;19978;-55
2023/04/02 04:15:19;;;;;;;;;;;;;;;18.58;58.20;97826.16;2080380;28;19932;-55
2023/04/02 04:16:22;;;;;;;;;;;;;;;18.56;58.30;97827.44;2082738;28;19928;-56
2023/04/02 04:17:28;;;;;;;;;;;;;;;18.57;58.17;97823.69;2082060;28;19928;-48
2023/04/02 04:18:36;;;;;;;;;;;;;;;18.56;58.25;97828.25;2079607;28;19940;-52
2023/04/02 04:19:40;;;;;;;;;;;;;;;18.56;58.15;97817.50;2082518;28;19924;-56
2023/04/02 04:20:45;;;;;;;;;;;;;;;18.57;58.33;97826.38;2085709;28;19971;-52
2023/04/02 04:21:45;;;;;;;;;;;;;;;18.56;58.27;97819.38;2079820;28;20379;-56
2023/04/02 04:22:54;;;;;;;;;;;;;;;18.56;58.02;97817.50;2081708;28;20023;-58
2023/04/02 04:23:55;;;;;;;;;;;;;;;18.57;58.08;97815.63;2073878;28;19979;-58
2023/04/02 04:24:57;;;;;;;;;;;;;;;18.56;58.12;97814.81;2074555;28;19933;-54
2023/04/02 04:26:00;;;;;;;;;;;;;;;18.54;57.89;97816.91;2082232;28;20369;-57
2023/04/02 04:27:08;;;;;;;;;;;;;;;18.54;58.29;97816.91;2083449;28;19935;-52
2023/04/02 04:28:15;;;;;;;;;;;;;;;18.54;57.94;97819.59;2078012;28;22201;-57
2023/04/02 04:29:26;;;;;;;;;;;;;;;18.54;58.27;97817.72;2082632;28;19932;-51
2023/04/02 04:30:29;;;;;;;;;;;;;;;18.53;58.32;97818.78;2083403;28;20017;-52
2023/04/02 04:31:37;;;;;;;;;;;;;;;18.53;58.37;97820.66;2079256;28;19939;-51
2023/04/02 04:32:48;;;;;;;;;;;;;;;18.53;58.14;97818.78;2081919;28;19932;-56
2023/04/02 04:33:54;;;;;;;;;;;;;;;18.53;58.00;97815.28;2085106;28;20773;-55
2023/04/02 04:34:57;;;;;;;;;;;;;;;18.52;57.99;97817.13;2081485;28;19928;-56
2023/04/02 04:35:59;;;;;;;;;;;;;;;18.53;58.08;97813.41;2078684;28;19935;-54
2023/04/02 04:37:06;;;;;;;;;;;;;;;18.52;58.33;97809.06;2079981;28;20532;-55
2023/04/02 04:38:13;;;;;;;;;;;;;;;18.53;58.08;97812.59;2084963;28;19974;-54
2023/04/02 04:39:16;;;;;;;;;;;;;;;18.54;58.21;97809.66;2080164;27;19940;-57
2023/04/02 04:40:20;;;;;;;;;;;;;;;18.54;58.15;97808.84;2083675;28;19925;-53
2023/04/02 04:41:23;;;;;;;;;;;;;;;18.54;57.97;97817.72;2085042;28;19925;-55
2023/04/02 04:42:27;;;;;;;;;;;;;;;18.52;58.09;97817.13;2082314;28;20037;-56
2023/04/02 04:43:31;;;;;;;;;;;;;;;18.50;58.16;97813.03;2088071;28;20058;-56
2023/04/02 04:44:42;;;;;;;;;;;;;;;18.50;58.28;97819.22;2082436;28;19933;-57
2023/04/02 04:45:46;;;;;;;;;;;;;;;18.53;58.11;97817.97;2084798;28;19932;-53
2023/04/02 04:46:51;;;;;;;;;;;;;;;18.51;58.09;97815.47;2081498;28;19949;-49
2023/04/02 04:47:54;;;;;;;;;;;;;;;18.50;58.17;97823.78;2078779;28;19932;-56
2023/04/02 04:48:59;;;;;;;;;;;;;;;18.52;58.05;97829.72;2081883;28;20262;-55
2023/04/02 04:50:02;;;;;;;;;;;;;;;18.48;58.34;97821.31;2082998;28;19932;-56
2023/04/02 04:51:06;;;;;;;;;;;;;;;18.49;58.38;97824.81;2085234;28;20853;-53
2023/04/02 04:52:08;;;;;;;;;;;;;;;18.50;58.24;97827.28;2083256;28;19928;-57
2023/04/02 04:53:15;;;;;;;;;;;;;;;18.51;58.22;97826.22;2083248;28;20797;-50
2023/04/02 04:54:15;;;;;;;;;;;;;;;18.49;58.17;97827.47;2081782;28;19933;-51
2023/04/02 04:55:26;;;;;;;;;;;;;;;18.49;58.10;97830.16;2085938;28;19936;-54
2023/04/02 04:56:28;;;;;;;;;;;;;;;18.50;58.36;97823.78;2082654;28;20827;-53
2023/04/02 04:57:31;;;;;;;;;;;;;;;18.48;58.06;97826.66;2085064;28;19928;-58
2023/04/02 04:58:34;;;;;;;;;;;;;;;18.48;58.28;97818.63;2083612;28;21247;-53
2023/04/02 04:59:41;;;;;;;;;;;;;;;18.47;58.17;97825.03;2083233;28;20003;-53
2023/04/02 05:00:46;;;;;;;;;;;;;;;18.47;58.24;97829.56;2082516;28;20382;-49
2023/04/02 05:01:50;;;;;;;;;;;;;;;18.48;58.32;97823.16;2083074;28;20013;-56
2023/04/02 05:02:53;;;;;;;;;;;;;;;18.46;58.37;97830.63;2080044;28;19928;-53
2023/04/02 05:03:58;;;;;;;;;;;;;;;18.48;58.06;97823.97;2083851;28;19925;-49
2023/04/02 05:04:59;;;;;;;;;;;;;;;18.46;58.26;97818.00;2082624;28;20490;-57
2023/04/02 05:06:04;;;;;;;;;;;;;;;18.46;58.28;97823.38;2084742;28;19933;-53
2023/04/02 05:07:07;;;;;;;;;;;;;;;18.46;58.21;97820.69;2080748;28;20294;-54
2023/04/02 05:08:13;;;;;;;;;;;;;;;18.49;58.01;97828.31;2081998;28;19939;-51
2023/04/02 05:09:19;;;;;;;;;;;;;;;18.48;57.94;97823.97;2083689;28;19932;-58
2023/04/02 05:10:27;;;;;;;;;;;;;;;18.46;58.02;97820.69;2082314;28;19976;-56
2023/04/02 05:11:31;;;;;;;;;;;;;;;18.42;58.29;97822.19;2080200;28;20380;-56
2023/04/02 05:12:35;;;;;;;;;;;;;;;18.42;58.36;97826.75;2078955;28;19932;-55
2023/04/02 05:13:38;;;;;;;;;;;;;;;18.42;58.11;97821.38;2082061;28;21842;-53
2023/04/02 05:14:42;;;;;;;;;;;;;;;18.42;58.59;97824.88;2079756;28;20865;-55
2023/04/02 05:15:45;;;;;;;;;;;;;;;18.43;58.17;97825.69;2080525;28;19936;-56
2023/04/02 05:16:51;;;;;;;;;;;;;;;18.43;58.27;97821.13;2081172;27;19985;-52
2023/04/02 05:17:54;;;;;;;;;;;;;;;18.43;58.10;97829.19;2078602;28;19985;-54
2023/04/02 05:18:59;;;;;;;;;;;;;;;18.46;58.17;97828.75;2078739;28;20256;-51
2023/04/02 05:20:05;;;;;;;;;;;;;;;18.44;58.20;97817.44;2077595;28;19928;-53
2023/04/02 05:21:14;;;;;;;;;;;;;;;18.45;58.05;97827.13;2083862;28;20035;-55
2023/04/02 05:22:19;;;;;;;;;;;;;;;18.44;58.28;97813.91;2075674;28;19933;-54
2023/04/02 05:23:23;;;;;;;;;;;;;;;18.43;58.25;97817.63;2080786;28;19932;-54
2023/04/02 05:24:41;;;;;;;;;;;;;;;18.44;58.20;97824.66;2079203;28;19929;-51
2023/04/02 05:25:52;;;;;;;;;;;;;;;18.41;58.03;97814.34;2082776;28;19936;-56
2023/04/02 05:26:57;;;;;;;;;;;;;;;18.42;58.04;97824.06;2084826;28;19932;-58
2023/04/02 05:28:02;;;;;;;;;;;;;;;18.40;58.07;97824.28;2081246;28;19935;-53
2023/04/02 05:29:08;;;;;;;;;;;;;;;18.42;58.08;97821.38;2082360;28;19936;-56
2023/04/02 05:30:14;;;;;;;;;;;;;;;18.42;58.40;97816.81;2079307;28;19935;-55
2023/04/02 05:31:18;;;;;;;;;;;;;;;18.42;58.38;97822.19;2080507;28;20020;-55
2023/04/02 05:32:23;;;;;;;;;;;;;;;18.41;58.24;97820.53;2079579;28;22101;-54
2023/04/02 05:33:26;;;;;;;;;;;;;;;18.39;58.03;97822.66;2087367;28;20759;-56
2023/04/02 05:34:29;;;;;;;;;;;;;;;18.38;58.03;97826.34;2076830;28;21366;-56
2023/04/02 05:35:31;;;;;;;;;;;;;;;18.40;57.94;97828.81;2081776;28;19955;-51